Terminal Aerodrome Forecast
Issued by NWS Mt. Holly, NJ

Home | Current Version | Previous Version | Text Only | Print | Product List | Glossary On
Versions: 1 2 3 4 5 6 7 8 9 10 11 12 13 14
000
FTUS41 KPHI 270548
TAFACY
TAF
KACY 270548Z 2706/2806 20011KT P6SM SCT050 BKN200
     FM270700 20008KT P6SM SCT030 BKN050
      TEMPO 2710/2713 BKN020
     FM271500 21012G19KT P6SM SCT030
     FM271900 17014G23KT P6SM BKN045
     FM280000 20012KT P6SM SCT120=

USA.gov is the U.S. government's official web portal to all federal, state and local government web resources and services.